Main page
METAR-TAF:

METAR-TAF

Airports :

Linköping City Airport

Linköping, Sweden

latitude: 58-24N, longitude: 015-41E, elevation: 52 m

Current weather observation

The report was made 26 minutes ago, at 23:20 UTC
Wind 13 kt from the West
Temperature 5°C
Humidity 81%
Pressure 1017 hPa
Visibility 10 km or more

METAR: ESSL 212320Z AUTO 28013KT 9999 OVC150/// 05/02 Q1017

Time: 00:46 (23:46 UTC)

Forecast

The report was made 3 hours and 16 minutes ago, at 20:30 UTC
Forecast valid from 21 at 21 UTC to 21 at 23 UTC
Wind 10 kt from the West
Visibility 10 km or more
no clouds below 1500 m and no cumulonimbus

TAF: ESSL 212030Z 2121/2123 26010KT CAVOK

Weather observations and forecasts of more than 4000 airports (METAR and TAF reports).

The available stations are represented by yellow and red dots on the map.

Hover mouse over dot to see the name of the station.

Then click to see weather observations and forecasts.

To change the map : click on the green buttons with a black cross to zoom in, on the green button with a dash to zoom out, or on the green arrows for adjacent maps.


METAR-TAF: